sensor_id;sensor_type;location;lat;lon;timestamp;pressure;altitude;pressure_sealevel;temperature;humidity
32733;BME280;11867;51.198;11.966;2023-05-27T00:00:17;101690.56;;;9.14;92.32
32733;BME280;11867;51.198;11.966;2023-05-27T00:01:39;101686.28;;;8.94;93.13
32733;BME280;11867;51.198;11.966;2023-05-27T00:03:02;101692.66;;;9.23;91.81
32733;BME280;11867;51.198;11.966;2023-05-27T00:04:25;101683.66;;;9.35;90.81
32733;BME280;11867;51.198;11.966;2023-05-27T00:05:48;101685.22;;;9.07;91.77
32733;BME280;11867;51.198;11.966;2023-05-27T00:07:11;101687.94;;;8.83;93.57
32733;BME280;11867;51.198;11.966;2023-05-27T00:08:34;101681.66;;;8.71;94.48
32733;BME280;11867;51.198;11.966;2023-05-27T00:09:57;101680.69;;;8.42;96.30
32733;BME280;11867;51.198;11.966;2023-05-27T00:11:20;101682.88;;;8.33;97.15
32733;BME280;11867;51.198;11.966;2023-05-27T00:12:43;101686.00;;;8.48;96.65
32733;BME280;11867;51.198;11.966;2023-05-27T00:14:04;101682.13;;;8.56;95.89
32733;BME280;11867;51.198;11.966;2023-05-27T00:15:29;101679.16;;;8.58;95.45
32733;BME280;11867;51.198;11.966;2023-05-27T00:16:51;101676.13;;;9.01;94.35
32733;BME280;11867;51.198;11.966;2023-05-27T00:18:14;101676.22;;;9.18;92.44
32733;BME280;11867;51.198;11.966;2023-05-27T00:19:37;101673.09;;;9.38;90.92
32733;BME280;11867;51.198;11.966;2023-05-27T00:21:00;101670.91;;;9.64;89.34
32733;BME280;11867;51.198;11.966;2023-05-27T00:22:22;101672.91;;;9.68;88.45
32733;BME280;11867;51.198;11.966;2023-05-27T00:23:46;101673.59;;;9.35;90.40
32733;BME280;11867;51.198;11.966;2023-05-27T00:25:08;101684.16;;;9.08;91.83
32733;BME280;11867;51.198;11.966;2023-05-27T00:26:31;101674.91;;;9.09;91.73
32733;BME280;11867;51.198;11.966;2023-05-27T00:27:53;101672.84;;;9.52;90.30
32733;BME280;11867;51.198;11.966;2023-05-27T00:29:17;101672.22;;;8.97;90.81
32733;BME280;11867;51.198;11.966;2023-05-27T00:30:41;101673.13;;;8.56;94.24
32733;BME280;11867;51.198;11.966;2023-05-27T00:32:04;101664.75;;;8.57;94.82
32733;BME280;11867;51.198;11.966;2023-05-27T00:33:26;101676.94;;;8.13;96.89
32733;BME280;11867;51.198;11.966;2023-05-27T00:34:49;101665.00;;;7.83;99.38
32733;BME280;11867;51.198;11.966;2023-05-27T00:36:12;101669.09;;;7.74;100.00
32733;BME280;11867;51.198;11.966;2023-05-27T00:37:35;101669.44;;;7.96;99.22
32733;BME280;11867;51.198;11.966;2023-05-27T00:38:58;101673.97;;;7.84;99.51
32733;BME280;11867;51.198;11.966;2023-05-27T00:40:23;101673.09;;;8.02;99.51
32733;BME280;11867;51.198;11.966;2023-05-27T00:41:48;101672.59;;;7.93;98.30
32733;BME280;11867;51.198;11.966;2023-05-27T00:43:12;101673.34;;;8.00;98.51
32733;BME280;11867;51.198;11.966;2023-05-27T00:44:35;101670.78;;;8.17;97.69
32733;BME280;11867;51.198;11.966;2023-05-27T00:45:58;101674.66;;;8.09;97.22
32733;BME280;11867;51.198;11.966;2023-05-27T00:47:22;101675.47;;;8.10;97.50
32733;BME280;11867;51.198;11.966;2023-05-27T00:48:45;101679.03;;;8.11;97.13
32733;BME280;11867;51.198;11.966;2023-05-27T00:50:09;101682.63;;;8.35;95.94
32733;BME280;11867;51.198;11.966;2023-05-27T00:51:32;101688.16;;;8.58;94.51
32733;BME280;11867;51.198;11.966;2023-05-27T00:52:54;101689.00;;;8.71;93.47
32733;BME280;11867;51.198;11.966;2023-05-27T00:54:18;101691.25;;;8.85;92.55
32733;BME280;11867;51.198;11.966;2023-05-27T00:55:40;101691.16;;;9.16;90.46
32733;BME280;11867;51.198;11.966;2023-05-27T00:57:04;101689.59;;;8.96;90.35
32733;BME280;11867;51.198;11.966;2023-05-27T00:58:26;101690.66;;;8.72;91.31
32733;BME280;11867;51.198;11.966;2023-05-27T00:59:49;101689.59;;;8.84;91.85
32733;BME280;11867;51.198;11.966;2023-05-27T01:01:13;101694.56;;;8.87;91.12
32733;BME280;11867;51.198;11.966;2023-05-27T01:02:37;101699.19;;;9.11;90.04
32733;BME280;11867;51.198;11.966;2023-05-27T01:04:02;101686.41;;;8.76;91.67
32733;BME280;11867;51.198;11.966;2023-05-27T01:05:26;101686.84;;;8.49;92.75
32733;BME280;11867;51.198;11.966;2023-05-27T01:06:57;101693.34;;;8.60;93.09
32733;BME280;11867;51.198;11.966;2023-05-27T01:08:28;101692.06;;;8.86;90.99
32733;BME280;11867;51.198;11.966;2023-05-27T01:09:55;101691.28;;;8.97;90.23
32733;BME280;11867;51.198;11.966;2023-05-27T01:11:23;101697.19;;;9.06;88.99
32733;BME280;11867;51.198;11.966;2023-05-27T01:12:57;101691.63;;;8.89;90.10
32733;BME280;11867;51.198;11.966;2023-05-27T01:14:23;101690.66;;;8.83;90.50
32733;BME280;11867;51.198;11.966;2023-05-27T01:15:49;101688.88;;;8.77;90.52
32733;BME280;11867;51.198;11.966;2023-05-27T01:17:17;101688.50;;;8.50;91.46
32733;BME280;11867;51.198;11.966;2023-05-27T01:18:42;101694.91;;;8.67;91.72
32733;BME280;11867;51.198;11.966;2023-05-27T01:20:07;101687.69;;;8.61;91.66
32733;BME280;11867;51.198;11.966;2023-05-27T01:21:34;101688.63;;;8.67;91.40
32733;BME280;11867;51.198;11.966;2023-05-27T01:23:00;101686.78;;;8.91;89.77
32733;BME280;11867;51.198;11.966;2023-05-27T01:24:25;101689.94;;;8.88;89.72
32733;BME280;11867;51.198;11.966;2023-05-27T01:25:47;101686.63;;;8.74;90.71
32733;BME280;11867;51.198;11.966;2023-05-27T01:27:10;101684.84;;;8.68;90.93
32733;BME280;11867;51.198;11.966;2023-05-27T01:28:34;101685.84;;;8.97;89.82
32733;BME280;11867;51.198;11.966;2023-05-27T01:29:57;101688.22;;;8.40;91.95
32733;BME280;11867;51.198;11.966;2023-05-27T01:31:24;101687.47;;;8.21;93.02
32733;BME280;11867;51.198;11.966;2023-05-27T01:32:54;101680.59;;;8.18;93.71
32733;BME280;11867;51.198;11.966;2023-05-27T01:34:25;101677.28;;;7.86;95.28
32733;BME280;11867;51.198;11.966;2023-05-27T01:35:54;101683.19;;;7.64;96.13
32733;BME280;11867;51.198;11.966;2023-05-27T01:37:22;101681.66;;;7.57;96.96
32733;BME280;11867;51.198;11.966;2023-05-27T01:38:49;101674.72;;;7.61;96.97
32733;BME280;11867;51.198;11.966;2023-05-27T01:40:13;101670.69;;;7.63;97.13
32733;BME280;11867;51.198;11.966;2023-05-27T01:41:38;101675.66;;;7.66;96.67
32733;BME280;11867;51.198;11.966;2023-05-27T01:43:01;101668.38;;;7.67;96.80
32733;BME280;11867;51.198;11.966;2023-05-27T01:44:24;101667.72;;;7.83;96.47
32733;BME280;11867;51.198;11.966;2023-05-27T01:45:46;101671.44;;;8.01;95.87
32733;BME280;11867;51.198;11.966;2023-05-27T01:47:10;101671.75;;;8.35;94.01
32733;BME280;11867;51.198;11.966;2023-05-27T01:48:33;101676.31;;;8.11;93.36
32733;BME280;11867;51.198;11.966;2023-05-27T01:49:55;101684.34;;;7.75;95.28
32733;BME280;11867;51.198;11.966;2023-05-27T01:51:18;101680.56;;;7.58;95.95
32733;BME280;11867;51.198;11.966;2023-05-27T01:52:40;101683.06;;;7.59;96.33
32733;BME280;11867;51.198;11.966;2023-05-27T01:54:04;101680.72;;;7.93;95.48
32733;BME280;11867;51.198;11.966;2023-05-27T01:55:26;101681.38;;;7.77;96.14
32733;BME280;11867;51.198;11.966;2023-05-27T01:56:49;101674.06;;;7.77;95.73
32733;BME280;11867;51.198;11.966;2023-05-27T01:58:11;101670.44;;;7.83;94.99
32733;BME280;11867;51.198;11.966;2023-05-27T01:59:34;101670.22;;;7.66;95.67
32733;BME280;11867;51.198;11.966;2023-05-27T02:00:57;101666.03;;;7.52;96.89
32733;BME280;11867;51.198;11.966;2023-05-27T02:02:19;101674.00;;;7.65;96.75
32733;BME280;11867;51.198;11.966;2023-05-27T02:03:42;101668.44;;;7.60;96.23
32733;BME280;11867;51.198;11.966;2023-05-27T02:05:05;101668.13;;;7.50;97.16
32733;BME280;11867;51.198;11.966;2023-05-27T02:06:28;101671.63;;;7.57;96.34
32733;BME280;11867;51.198;11.966;2023-05-27T02:07:49;101673.66;;;7.25;97.86
32733;BME280;11867;51.198;11.966;2023-05-27T02:09:14;101668.34;;;6.93;99.71
32733;BME280;11867;51.198;11.966;2023-05-27T02:10:36;101666.56;;;7.05;100.00
32733;BME280;11867;51.198;11.966;2023-05-27T02:11:59;101668.19;;;6.88;100.00
32733;BME280;11867;51.198;11.966;2023-05-27T02:13:22;101673.31;;;6.96;100.00
32733;BME280;11867;51.198;11.966;2023-05-27T02:14:44;101668.81;;;7.08;99.84
32733;BME280;11867;51.198;11.966;2023-05-27T02:16:07;101670.47;;;6.91;100.00
32733;BME280;11867;51.198;11.966;2023-05-27T02:17:29;101667.91;;;7.15;100.00
32733;BME280;11867;51.198;11.966;2023-05-27T02:18:52;101674.53;;;7.56;97.82
32733;BME280;11867;51.198;11.966;2023-05-27T02:20:14;101662.97;;;7.79;95.66
32733;BME280;11867;51.198;11.966;2023-05-27T02:21:37;101664.13;;;8.01;94.62
32733;BME280;11867;51.198;11.966;2023-05-27T02:23:00;101667.25;;;8.28;92.26
32733;BME280;11867;51.198;11.966;2023-05-27T02:24:24;101661.81;;;7.86;93.14
32733;BME280;11867;51.198;11.966;2023-05-27T02:25:46;101660.38;;;8.14;92.52
32733;BME280;11867;51.198;11.966;2023-05-27T02:27:11;101662.91;;;8.27;91.68
32733;BME280;11867;51.198;11.966;2023-05-27T02:28:34;101658.03;;;8.18;91.47
32733;BME280;11867;51.198;11.966;2023-05-27T02:29:56;101655.69;;;8.21;91.42
32733;BME280;11867;51.198;11.966;2023-05-27T02:31:19;101658.47;;;8.45;90.68
32733;BME280;11867;51.198;11.966;2023-05-27T02:32:41;101659.78;;;8.54;89.45
32733;BME280;11867;51.198;11.966;2023-05-27T02:34:04;101670.31;;;8.62;89.14
32733;BME280;11867;51.198;11.966;2023-05-27T02:35:27;101665.03;;;8.25;89.90
32733;BME280;11867;51.198;11.966;2023-05-27T02:36:49;101657.56;;;7.60;93.17
32733;BME280;11867;51.198;11.966;2023-05-27T02:38:12;101665.38;;;7.38;94.44
32733;BME280;11867;51.198;11.966;2023-05-27T02:39:35;101662.44;;;7.21;96.35
32733;BME280;11867;51.198;11.966;2023-05-27T02:40:58;101668.00;;;7.26;95.54
32733;BME280;11867;51.198;11.966;2023-05-27T02:42:20;101671.53;;;7.08;97.09
32733;BME280;11867;51.198;11.966;2023-05-27T02:43:43;101670.03;;;7.13;97.79
32733;BME280;11867;51.198;11.966;2023-05-27T02:45:07;101664.00;;;7.47;96.09
32733;BME280;11867;51.198;11.966;2023-05-27T02:46:30;101657.66;;;7.54;94.74
32733;BME280;11867;51.198;11.966;2023-05-27T02:47:53;101659.34;;;7.55;94.73
32733;BME280;11867;51.198;11.966;2023-05-27T02:49:17;101660.63;;;7.82;92.84
32733;BME280;11867;51.198;11.966;2023-05-27T02:50:41;101655.72;;;7.42;94.07
32733;BME280;11867;51.198;11.966;2023-05-27T02:52:04;101663.63;;;7.25;96.03
32733;BME280;11867;51.198;11.966;2023-05-27T02:53:27;101663.09;;;7.17;96.08
32733;BME280;11867;51.198;11.966;2023-05-27T02:54:50;101665.50;;;7.06;97.41
32733;BME280;11867;51.198;11.966;2023-05-27T02:56:13;101669.41;;;7.11;97.09
32733;BME280;11867;51.198;11.966;2023-05-27T02:57:36;101658.28;;;7.19;96.27
32733;BME280;11867;51.198;11.966;2023-05-27T02:58:59;101658.75;;;7.34;95.75
32733;BME280;11867;51.198;11.966;2023-05-27T03:00:21;101663.53;;;7.69;93.84
32733;BME280;11867;51.198;11.966;2023-05-27T03:01:44;101655.75;;;8.03;91.89
32733;BME280;11867;51.198;11.966;2023-05-27T03:03:07;101661.34;;;7.89;91.52
32733;BME280;11867;51.198;11.966;2023-05-27T03:04:30;101659.09;;;7.56;92.59
32733;BME280;11867;51.198;11.966;2023-05-27T03:05:53;101658.88;;;7.21;94.58
32733;BME280;11867;51.198;11.966;2023-05-27T03:07:16;101656.63;;;6.99;95.38
32733;BME280;11867;51.198;11.966;2023-05-27T03:08:39;101668.34;;;6.93;97.23
32733;BME280;11867;51.198;11.966;2023-05-27T03:10:04;101658.38;;;6.69;98.55
32733;BME280;11867;51.198;11.966;2023-05-27T03:11:26;101667.66;;;6.54;99.43
32733;BME280;11867;51.198;11.966;2023-05-27T03:12:48;101665.97;;;6.35;100.00
32733;BME280;11867;51.198;11.966;2023-05-27T03:14:11;101666.84;;;6.29;100.00
32733;BME280;11867;51.198;11.966;2023-05-27T03:15:33;101666.44;;;6.25;100.00
32733;BME280;11867;51.198;11.966;2023-05-27T03:16:56;101666.56;;;6.37;100.00
32733;BME280;11867;51.198;11.966;2023-05-27T03:18:18;101671.94;;;6.43;100.00
32733;BME280;11867;51.198;11.966;2023-05-27T03:19:41;101658.03;;;6.58;100.00
32733;BME280;11867;51.198;11.966;2023-05-27T03:21:04;101657.44;;;7.00;98.97
32733;BME280;11867;51.198;11.966;2023-05-27T03:22:27;101659.47;;;7.04;96.31
32733;BME280;11867;51.198;11.966;2023-05-27T03:23:49;101654.72;;;6.56;99.28
32733;BME280;11867;51.198;11.966;2023-05-27T03:25:13;101652.50;;;6.72;99.05
32733;BME280;11867;51.198;11.966;2023-05-27T03:26:35;101653.38;;;6.40;100.00
32733;BME280;11867;51.198;11.966;2023-05-27T03:27:58;101657.63;;;6.30;100.00
32733;BME280;11867;51.198;11.966;2023-05-27T03:29:20;101656.16;;;6.59;100.00
32733;BME280;11867;51.198;11.966;2023-05-27T03:30:43;101654.94;;;6.55;99.47
32733;BME280;11867;51.198;11.966;2023-05-27T03:32:05;101668.53;;;6.73;98.96
32733;BME280;11867;51.198;11.966;2023-05-27T03:33:28;101659.19;;;6.69;98.75
32733;BME280;11867;51.198;11.966;2023-05-27T03:34:50;101658.03;;;6.58;98.74
32733;BME280;11867;51.198;11.966;2023-05-27T03:36:13;101657.28;;;6.51;99.75
32733;BME280;11867;51.198;11.966;2023-05-27T03:37:36;101650.19;;;6.25;100.00
32733;BME280;11867;51.198;11.966;2023-05-27T03:38:58;101659.84;;;6.14;100.00
32733;BME280;11867;51.198;11.966;2023-05-27T03:40:22;101659.53;;;6.29;100.00
32733;BME280;11867;51.198;11.966;2023-05-27T03:41:47;101662.63;;;6.33;100.00
32733;BME280;11867;51.198;11.966;2023-05-27T03:43:09;101671.19;;;6.30;100.00
32733;BME280;11867;51.198;11.966;2023-05-27T03:44:32;101669.09;;;6.32;100.00
32733;BME280;11867;51.198;11.966;2023-05-27T03:45:54;101668.75;;;6.46;100.00
32733;BME280;11867;51.198;11.966;2023-05-27T03:47:17;101664.94;;;6.79;99.40
32733;BME280;11867;51.198;11.966;2023-05-27T03:48:42;101678.97;;;6.70;98.12
32733;BME280;11867;51.198;11.966;2023-05-27T03:50:06;101676.72;;;6.66;98.44
32733;BME280;11867;51.198;11.966;2023-05-27T03:51:29;101676.72;;;6.41;98.99
32733;BME280;11867;51.198;11.966;2023-05-27T03:52:52;101681.00;;;6.31;100.00
32733;BME280;11867;51.198;11.966;2023-05-27T03:54:15;101675.91;;;6.41;100.00
32733;BME280;11867;51.198;11.966;2023-05-27T03:55:39;101678.78;;;6.46;100.00
32733;BME280;11867;51.198;11.966;2023-05-27T03:57:02;101680.75;;;6.32;100.00
32733;BME280;11867;51.198;11.966;2023-05-27T03:58:25;101679.38;;;6.48;100.00
32733;BME280;11867;51.198;11.966;2023-05-27T03:59:47;101684.31;;;6.58;100.00
32733;BME280;11867;51.198;11.966;2023-05-27T04:01:10;101681.81;;;6.81;99.61
32733;BME280;11867;51.198;11.966;2023-05-27T04:02:33;101680.19;;;6.99;97.81
32733;BME280;11867;51.198;11.966;2023-05-27T04:03:56;101678.13;;;6.94;98.39
32733;BME280;11867;51.198;11.966;2023-05-27T04:05:19;101679.19;;;6.93;97.06
32733;BME280;11867;51.198;11.966;2023-05-27T04:06:41;101678.28;;;6.81;98.53
32733;BME280;11867;51.198;11.966;2023-05-27T04:08:05;101677.41;;;7.05;97.55
32733;BME280;11867;51.198;11.966;2023-05-27T04:09:28;101673.50;;;7.01;97.60
32733;BME280;11867;51.198;11.966;2023-05-27T04:10:51;101680.13;;;7.24;96.59
32733;BME280;11867;51.198;11.966;2023-05-27T04:12:14;101677.72;;;7.34;95.74
32733;BME280;11867;51.198;11.966;2023-05-27T04:13:36;101673.94;;;7.35;95.21
32733;BME280;11867;51.198;11.966;2023-05-27T04:14:59;101682.22;;;7.03;96.35
32733;BME280;11867;51.198;11.966;2023-05-27T04:16:23;101673.94;;;7.17;97.07
32733;BME280;11867;51.198;11.966;2023-05-27T04:17:46;101670.25;;;7.48;95.58
32733;BME280;11867;51.198;11.966;2023-05-27T04:19:09;101675.00;;;7.53;95.56
32733;BME280;11867;51.198;11.966;2023-05-27T04:20:34;101683.53;;;7.19;95.85
32733;BME280;11867;51.198;11.966;2023-05-27T04:21:58;101684.03;;;6.91;98.15
32733;BME280;11867;51.198;11.966;2023-05-27T04:23:21;101685.63;;;6.74;100.00
32733;BME280;11867;51.198;11.966;2023-05-27T04:24:45;101675.16;;;6.77;99.78
32733;BME280;11867;51.198;11.966;2023-05-27T04:26:10;101685.91;;;6.65;100.00
32733;BME280;11867;51.198;11.966;2023-05-27T04:27:33;101682.31;;;6.72;100.00
32733;BME280;11867;51.198;11.966;2023-05-27T04:28:55;101681.59;;;6.83;100.00
32733;BME280;11867;51.198;11.966;2023-05-27T04:30:21;101678.31;;;6.99;100.00
32733;BME280;11867;51.198;11.966;2023-05-27T04:31:44;101685.47;;;7.12;99.41
32733;BME280;11867;51.198;11.966;2023-05-27T04:33:07;101681.41;;;7.03;99.08
32733;BME280;11867;51.198;11.966;2023-05-27T04:34:30;101686.84;;;7.03;100.00
32733;BME280;11867;51.198;11.966;2023-05-27T04:35:53;101682.94;;;7.17;99.91
32733;BME280;11867;51.198;11.966;2023-05-27T04:37:17;101679.38;;;7.17;99.32
32733;BME280;11867;51.198;11.966;2023-05-27T04:38:41;101678.38;;;7.30;99.01
32733;BME280;11867;51.198;11.966;2023-05-27T04:40:07;101679.72;;;7.76;98.25
32733;BME280;11867;51.198;11.966;2023-05-27T04:41:32;101678.94;;;8.17;95.81
32733;BME280;11867;51.198;11.966;2023-05-27T04:42:54;101676.06;;;8.42;93.42
32733;BME280;11867;51.198;11.966;2023-05-27T04:44:17;101680.84;;;8.28;92.85
32733;BME280;11867;51.198;11.966;2023-05-27T04:45:40;101676.72;;;8.26;92.82
32733;BME280;11867;51.198;11.966;2023-05-27T04:47:04;101679.72;;;8.06;94.44
32733;BME280;11867;51.198;11.966;2023-05-27T04:48:27;101676.56;;;8.09;95.22
32733;BME280;11867;51.198;11.966;2023-05-27T04:49:49;101676.19;;;8.05;95.63
32733;BME280;11867;51.198;11.966;2023-05-27T04:51:13;101676.94;;;8.24;95.10
32733;BME280;11867;51.198;11.966;2023-05-27T04:52:37;101675.75;;;8.62;94.16
32733;BME280;11867;51.198;11.966;2023-05-27T04:54:02;101673.88;;;8.75;93.20
32733;BME280;11867;51.198;11.966;2023-05-27T04:55:27;101670.31;;;9.09;91.82
32733;BME280;11867;51.198;11.966;2023-05-27T04:56:51;101668.81;;;9.54;89.50
32733;BME280;11867;51.198;11.966;2023-05-27T04:58:14;101672.56;;;9.65;88.22
32733;BME280;11867;51.198;11.966;2023-05-27T04:59:37;101679.91;;;9.64;88.60
32733;BME280;11867;51.198;11.966;2023-05-27T05:01:10;101678.00;;;9.24;90.06
32733;BME280;11867;51.198;11.966;2023-05-27T05:02:38;101679.19;;;9.17;90.43
32733;BME280;11867;51.198;11.966;2023-05-27T05:04:01;101679.91;;;9.00;92.05
32733;BME280;11867;51.198;11.966;2023-05-27T05:05:34;101674.22;;;8.66;94.36
32733;BME280;11867;51.198;11.966;2023-05-27T05:06:59;101679.91;;;9.12;93.59
32733;BME280;11867;51.198;11.966;2023-05-27T05:08:21;101673.72;;;9.69;90.21
32733;BME280;11867;51.198;11.966;2023-05-27T05:09:45;101673.34;;;10.06;87.87
32733;BME280;11867;51.198;11.966;2023-05-27T05:11:08;101677.25;;;10.27;86.83
32733;BME280;11867;51.198;11.966;2023-05-27T05:12:33;101671.28;;;10.42;86.14
32733;BME280;11867;51.198;11.966;2023-05-27T05:13:54;101679.16;;;10.26;86.58
32733;BME280;11867;51.198;11.966;2023-05-27T05:15:17;101675.00;;;10.36;86.76
32733;BME280;11867;51.198;11.966;2023-05-27T05:16:40;101670.78;;;10.62;85.81
32733;BME280;11867;51.198;11.966;2023-05-27T05:18:02;101678.72;;;10.80;84.31
32733;BME280;11867;51.198;11.966;2023-05-27T05:19:25;101670.09;;;10.88;83.98
32733;BME280;11867;51.198;11.966;2023-05-27T05:20:48;101676.03;;;11.02;83.62
32733;BME280;11867;51.198;11.966;2023-05-27T05:22:11;101684.38;;;11.13;83.13
32733;BME280;11867;51.198;11.966;2023-05-27T05:23:35;101672.25;;;11.25;82.51
32733;BME280;11867;51.198;11.966;2023-05-27T05:24:58;101673.28;;;11.19;82.40
32733;BME280;11867;51.198;11.966;2023-05-27T05:26:20;101676.25;;;11.18;82.90
32733;BME280;11867;51.198;11.966;2023-05-27T05:27:44;101685.81;;;11.37;81.32
32733;BME280;11867;51.198;11.966;2023-05-27T05:29:06;101681.91;;;11.11;83.67
32733;BME280;11867;51.198;11.966;2023-05-27T05:30:29;101683.91;;;10.82;85.02
32733;BME280;11867;51.198;11.966;2023-05-27T05:31:52;101685.81;;;10.98;84.34
32733;BME280;11867;51.198;11.966;2023-05-27T05:33:15;101679.56;;;11.20;83.67
32733;BME280;11867;51.198;11.966;2023-05-27T05:34:38;101685.16;;;11.30;83.66
32733;BME280;11867;51.198;11.966;2023-05-27T05:36:01;101686.59;;;11.16;84.02
32733;BME280;11867;51.198;11.966;2023-05-27T05:37:24;101693.19;;;11.20;84.18
32733;BME280;11867;51.198;11.966;2023-05-27T05:38:47;101683.13;;;11.03;84.67
32733;BME280;11867;51.198;11.966;2023-05-27T05:40:10;101688.69;;;11.30;84.02
32733;BME280;11867;51.198;11.966;2023-05-27T05:41:33;101693.41;;;11.57;82.41
32733;BME280;11867;51.198;11.966;2023-05-27T05:42:56;101684.75;;;11.87;81.68
32733;BME280;11867;51.198;11.966;2023-05-27T05:44:20;101691.66;;;11.90;81.35
32733;BME280;11867;51.198;11.966;2023-05-27T05:45:42;101685.41;;;11.95;79.72
32733;BME280;11867;51.198;11.966;2023-05-27T05:47:05;101685.16;;;11.96;80.39
32733;BME280;11867;51.198;11.966;2023-05-27T05:48:27;101685.41;;;11.95;80.88
32733;BME280;11867;51.198;11.966;2023-05-27T05:49:50;101696.78;;;12.08;80.67
32733;BME280;11867;51.198;11.966;2023-05-27T05:51:12;101695.34;;;12.28;79.46
32733;BME280;11867;51.198;11.966;2023-05-27T05:52:35;101692.31;;;12.29;78.48
32733;BME280;11867;51.198;11.966;2023-05-27T05:53:58;101701.16;;;12.37;79.41
32733;BME280;11867;51.198;11.966;2023-05-27T05:55:21;101694.50;;;12.60;78.69
32733;BME280;11867;51.198;11.966;2023-05-27T05:56:44;101699.59;;;12.46;78.80
32733;BME280;11867;51.198;11.966;2023-05-27T05:58:07;101703.59;;;12.06;80.79
32733;BME280;11867;51.198;11.966;2023-05-27T05:59:30;101702.97;;;12.26;80.44
32733;BME280;11867;51.198;11.966;2023-05-27T06:00:52;101703.63;;;12.11;80.49
32733;BME280;11867;51.198;11.966;2023-05-27T06:02:15;101711.16;;;11.55;83.33
32733;BME280;11867;51.198;11.966;2023-05-27T06:03:38;101711.66;;;11.51;84.20
32733;BME280;11867;51.198;11.966;2023-05-27T06:05:00;101708.09;;;11.73;83.44
32733;BME280;11867;51.198;11.966;2023-05-27T06:06:23;101703.06;;;11.87;82.71
32733;BME280;11867;51.198;11.966;2023-05-27T06:07:46;101700.53;;;12.29;80.62
32733;BME280;11867;51.198;11.966;2023-05-27T06:09:08;101702.84;;;12.43;80.32
32733;BME280;11867;51.198;11.966;2023-05-27T06:10:31;101696.81;;;12.41;80.59
32733;BME280;11867;51.198;11.966;2023-05-27T06:11:54;101705.22;;;12.66;79.54
32733;BME280;11867;51.198;11.966;2023-05-27T06:13:18;101704.34;;;12.61;79.65
32733;BME280;11867;51.198;11.966;2023-05-27T06:14:41;101706.38;;;12.38;81.48
32733;BME280;11867;51.198;11.966;2023-05-27T06:16:03;101701.19;;;12.74;80.04
32733;BME280;11867;51.198;11.966;2023-05-27T06:17:26;101698.00;;;12.87;77.83
32733;BME280;11867;51.198;11.966;2023-05-27T06:18:49;101693.66;;;12.91;78.25
32733;BME280;11867;51.198;11.966;2023-05-27T06:20:13;101701.25;;;12.47;80.73
32733;BME280;11867;51.198;11.966;2023-05-27T06:21:36;101709.19;;;12.81;79.82
32733;BME280;11867;51.198;11.966;2023-05-27T06:22:59;101702.59;;;13.19;77.92
32733;BME280;11867;51.198;11.966;2023-05-27T06:24:22;101701.19;;;12.74;79.73
32733;BME280;11867;51.198;11.966;2023-05-27T06:25:44;101700.56;;;12.99;78.99
32733;BME280;11867;51.198;11.966;2023-05-27T06:27:07;101701.19;;;13.11;79.49
32733;BME280;11867;51.198;11.966;2023-05-27T06:28:30;101703.94;;;13.17;79.24
32733;BME280;11867;51.198;11.966;2023-05-27T06:29:53;101705.91;;;13.21;79.32
32733;BME280;11867;51.198;11.966;2023-05-27T06:31:16;101702.59;;;13.19;78.71
32733;BME280;11867;51.198;11.966;2023-05-27T06:32:38;101704.69;;;13.44;78.20
32733;BME280;11867;51.198;11.966;2023-05-27T06:34:01;101707.53;;;13.70;77.20
32733;BME280;11867;51.198;11.966;2023-05-27T06:35:24;101697.66;;;13.69;76.87
32733;BME280;11867;51.198;11.966;2023-05-27T06:36:47;101700.66;;;13.62;76.35
32733;BME280;11867;51.198;11.966;2023-05-27T06:38:10;101691.59;;;13.62;76.75
32733;BME280;11867;51.198;11.966;2023-05-27T06:39:32;101693.16;;;13.47;77.91
32733;BME280;11867;51.198;11.966;2023-05-27T06:40:55;101687.84;;;13.25;78.70
32733;BME280;11867;51.198;11.966;2023-05-27T06:42:18;101686.47;;;13.28;79.78
32733;BME280;11867;51.198;11.966;2023-05-27T06:43:42;101675.66;;;13.53;78.17
32733;BME280;11867;51.198;11.966;2023-05-27T06:45:06;101684.50;;;13.76;77.36
32733;BME280;11867;51.198;11.966;2023-05-27T06:46:29;101683.75;;;13.96;76.85
32733;BME280;11867;51.198;11.966;2023-05-27T06:47:52;101681.84;;;13.91;76.95
32733;BME280;11867;51.198;11.966;2023-05-27T06:49:15;101684.03;;;13.89;76.98
32733;BME280;11867;51.198;11.966;2023-05-27T06:50:38;101689.81;;;13.98;76.62
32733;BME280;11867;51.198;11.966;2023-05-27T06:52:01;101689.53;;;14.00;76.54
32733;BME280;11867;51.198;11.966;2023-05-27T06:53:24;101678.59;;;14.10;76.06
32733;BME280;11867;51.198;11.966;2023-05-27T06:54:47;101684.88;;;14.16;75.55
32733;BME280;11867;51.198;11.966;2023-05-27T06:56:10;101683.22;;;13.94;76.85
32733;BME280;11867;51.198;11.966;2023-05-27T06:57:33;101686.25;;;13.98;76.68
32733;BME280;11867;51.198;11.966;2023-05-27T06:58:57;101695.63;;;14.22;75.24
32733;BME280;11867;51.198;11.966;2023-05-27T07:00:19;101692.88;;;14.32;75.47
32733;BME280;11867;51.198;11.966;2023-05-27T07:01:42;101690.16;;;14.32;75.63
32733;BME280;11867;51.198;11.966;2023-05-27T07:03:05;101695.63;;;14.38;75.30
32733;BME280;11867;51.198;11.966;2023-05-27T07:04:28;101692.06;;;14.42;75.00
32733;BME280;11867;51.198;11.966;2023-05-27T07:05:51;101697.53;;;14.42;75.40
32733;BME280;11867;51.198;11.966;2023-05-27T07:07:13;101695.31;;;14.24;75.42
32733;BME280;11867;51.198;11.966;2023-05-27T07:08:36;101691.75;;;14.13;75.88
32733;BME280;11867;51.198;11.966;2023-05-27T07:09:59;101692.31;;;14.20;76.53
32733;BME280;11867;51.198;11.966;2023-05-27T07:11:21;101684.34;;;14.34;75.23
32733;BME280;11867;51.198;11.966;2023-05-27T07:12:44;101692.03;;;14.22;74.40